Startpagina
METAR-TAF:

METAR-TAF

Vliegvelden :

Flughafen Dortmund

Dortmund, Duitsland

breedte: 51-31N, lengte: 007-37E, hoogte: 127 m

Actueel weer

Dit bericht is 18 minuten geleden gemaakt, om 05:50 UTC
Wind 7 kt uit het zuidoosten
Temperatuur -3°C
Vochtigheid 86%
Druk 1026 hPa
Zicht 10 km of meer
geen wolken onder 1500 m en geen cumulonimbus

METAR: EDLW 070550Z 14007KT CAVOK M03/M05 Q1026

Tijdstip: 07:08 (06:08 UTC)

Verwachting

Dit bericht is 1 uur en het 8 minuten geleden gemaakt, om 05:00 UTC
Verwachting geldig van 07 om 06 UTC tot 08 om 06 UTC
Wind 4 kt uit het zuidzuidoosten
Zicht 10 km of meer
Verspreide wolken op 4000 ft
Wijzigt naar
van 07 om 09 UTC tot 07 om 12 UTC
Wind 5 kt uit het noordnoordwesten
Wijzigt naar
van 07 om 18 UTC tot 07 om 21 UTC
Wind 4 kt uit het westzuidwesten
Wijzigt naar
van 08 om 03 UTC tot 08 om 06 UTC
Gebroken wolken op 900 ft

TAF: EDLW 070500Z 0706/0806 16004KT 9999 SCT040 BECMG 0709/0712 34005KT BECMG 0718/0721 24004KT BECMG 0803/0806 BKN009

Waarnemingen en weersverwachtingen van meer dan 4000 vliegvelden (METAR en TAF).

De beschikbare stations zijn de gele en rode punten op de kaart.

Ga met uw muis naar het station om de naam te zien.

Klik dan om waarnemingen en weersverwachtingen te zien.

kaart wijzigen: klik op de groene knoppen met een zwart kruis om in te zoomen, op de groene knop met een streepje om uit te zoomen of op de groene pijlen voor aangrenzende kaarten.


METAR-TAF: